Time;durP1;ratioP1;P1;durP2;ratioP2;P2;SDS_P1;SDS_P2;PMS_P1;PMS_P2;Temp;Humidity;BMP_temperature;BMP_pressure;BME280_temperature;BME280_humidity;BME280_pressure;Samples;Min_cycle;Max_cycle;Signal;HPM_P1;HPM_P2
2021/01/30 00:00:08;;;;;;;5.40;1.60;;;;;;;;;;5067383;28;20036;-73
2021/01/30 00:02:34;;;;;;;3.50;1.63;;;;;;;;;;5060242;28;20039;-74
2021/01/30 00:05:00;;;;;;;18.90;2.72;;;;;;;;;;5058116;28;20036;-73
2021/01/30 00:07:26;;;;;;;3.33;1.52;;;;;;;;;;5065814;28;20490;-72
2021/01/30 00:09:52;;;;;;;3.83;1.50;;;;;;;;;;5055262;28;20024;-73
2021/01/30 00:12:19;;;;;;;3.63;1.50;;;;;;;;;;5065579;28;20021;-73
2021/01/30 00:14:45;;;;;;;3.58;1.75;;;;;;;;;;5040146;28;20033;-72
2021/01/30 00:17:11;;;;;;;2.92;1.55;;;;;;;;;;5056183;28;20020;-75
2021/01/30 00:19:38;;;;;;;3.83;1.65;;;;;;;;;;5052345;28;20531;-76
2021/01/30 00:22:05;;;;;;;4.25;1.50;;;;;;;;;;5064609;28;20396;-76
2021/01/30 00:24:32;;;;;;;3.60;1.40;;;;;;;;;;5049073;28;20025;-79
2021/01/30 00:27:03;;;;;;;3.25;1.40;;;;;;;;;;5062352;28;20028;-76
2021/01/30 00:29:31;;;;;;;2.55;1.17;;;;;;;;;;5057526;28;20021;-78
2021/01/30 00:31:57;;;;;;;3.33;1.50;;;;;;;;;;5057987;28;20083;-79
2021/01/30 00:34:24;;;;;;;3.65;1.30;;;;;;;;;;5066658;28;20032;-77
2021/01/30 00:36:50;;;;;;;3.15;1.20;;;;;;;;;;5062922;28;20025;-75
2021/01/30 00:39:17;;;;;;;4.35;1.50;;;;;;;;;;5059176;28;20503;-75
2021/01/30 00:41:43;;;;;;;3.08;1.50;;;;;;;;;;5055343;28;20120;-76
2021/01/30 00:44:09;;;;;;;3.58;1.25;;;;;;;;;;5062355;28;20023;-76
2021/01/30 00:46:35;;;;;;;4.30;1.25;;;;;;;;;;5063512;28;20021;-79
2021/01/30 00:49:02;;;;;;;3.05;1.30;;;;;;;;;;5041826;28;20045;-75
2021/01/30 00:51:28;;;;;;;4.25;1.30;;;;;;;;;;5065142;28;20377;-75
2021/01/30 00:53:54;;;;;;;2.55;1.10;;;;;;;;;;5055625;28;20021;-75
2021/01/30 00:56:20;;;;;;;2.90;1.10;;;;;;;;;;5066972;28;20096;-76
2021/01/30 00:58:46;;;;;;;6.15;1.15;;;;;;;;;;5052105;28;20078;-76
2021/01/30 01:01:13;;;;;;;5.25;1.10;;;;;;;;;;5065727;28;20056;-72
2021/01/30 01:03:39;;;;;;;4.90;1.10;;;;;;;;;;5055069;28;20098;-73
2021/01/30 01:06:05;;;;;;;3.03;1.25;;;;;;;;;;5056058;28;20121;-74
2021/01/30 01:08:31;;;;;;;3.95;1.10;;;;;;;;;;5064978;28;20021;-75
2021/01/30 01:10:57;;;;;;;3.47;1.25;;;;;;;;;;5064934;28;20100;-77
2021/01/30 01:13:24;;;;;;;5.93;0.98;;;;;;;;;;5057761;28;20110;-73
2021/01/30 01:15:50;;;;;;;2.80;1.10;;;;;;;;;;5067987;28;20479;-75
2021/01/30 01:18:16;;;;;;;2.92;1.15;;;;;;;;;;5058581;28;20013;-73
2021/01/30 01:20:42;;;;;;;2.50;1.08;;;;;;;;;;5061920;28;20061;-75
2021/01/30 01:23:08;;;;;;;2.53;0.93;;;;;;;;;;5039027;28;20373;-75
2021/01/30 01:25:34;;;;;;;2.75;1.05;;;;;;;;;;5065924;28;20036;-75
2021/01/30 01:28:00;;;;;;;2.38;0.93;;;;;;;;;;5055447;28;20108;-74
2021/01/30 01:30:27;;;;;;;4.90;1.00;;;;;;;;;;5068844;28;20078;-75
2021/01/30 01:32:53;;;;;;;3.67;0.93;;;;;;;;;;5060309;28;20420;-75
2021/01/30 01:35:27;;;;;;;6.72;1.30;;;;;;;;;;5065607;28;20055;-77
2021/01/30 01:37:53;;;;;;;2.25;1.00;;;;;;;;;;5054248;28;20090;-79
2021/01/30 01:40:25;;;;;;;2.63;1.00;;;;;;;;;;5053703;28;20472;-84
2021/01/30 01:42:57;;;;;;;2.03;0.90;;;;;;;;;;5053045;28;20028;-78
2021/01/30 01:45:23;;;;;;;2.70;1.00;;;;;;;;;;5055893;28;20125;-77
2021/01/30 01:47:49;;;;;;;2.05;0.75;;;;;;;;;;5069146;28;20044;-75
2021/01/30 01:50:15;;;;;;;3.63;0.90;;;;;;;;;;5058339;28;20031;-76
2021/01/30 01:52:41;;;;;;;2.45;0.80;;;;;;;;;;5062127;28;20095;-76
2021/01/30 01:55:11;;;;;;;2.17;0.70;;;;;;;;;;5065271;28;20598;-77
2021/01/30 01:57:41;;;;;;;10.48;1.02;;;;;;;;;;5039471;28;20116;-73
2021/01/30 02:00:07;;;;;;;11.18;1.00;;;;;;;;;;5067496;28;20566;-73
2021/01/30 02:02:33;;;;;;;6.65;1.10;;;;;;;;;;5060491;28;20029;-73
2021/01/30 02:05:05;;;;;;;5.57;1.15;;;;;;;;;;5059941;28;20082;-73
2021/01/30 02:07:32;;;;;;;5.65;0.98;;;;;;;;;;5068277;28;20031;-73
2021/01/30 02:09:59;;;;;;;6.88;0.90;;;;;;;;;;5039117;28;20016;-73
2021/01/30 02:12:26;;;;;;;3.78;0.90;;;;;;;;;;5064873;28;20021;-72
2021/01/30 02:14:53;;;;;;;3.03;0.68;;;;;;;;;;5053817;28;20021;-73
2021/01/30 02:17:29;;;;;;;4.15;0.85;;;;;;;;;;5056774;28;20035;-72
2021/01/30 02:20:13;;;;;;;3.25;0.70;;;;;;;;;;5067854;28;20070;-73
2021/01/30 02:22:42;;;;;;;6.28;0.80;;;;;;;;;;5057394;28;20137;-72
2021/01/30 02:25:25;;;;;;;2.30;0.80;;;;;;;;;;5064297;28;20043;-73
2021/01/30 02:28:03;;;;;;;3.17;0.90;;;;;;;;;;5054356;28;20033;-72
2021/01/30 02:30:39;;;;;;;3.03;1.02;;;;;;;;;;5048100;28;20137;-72
2021/01/30 02:33:24;;;;;;;2.35;0.75;;;;;;;;;;5055576;28;20070;-72
2021/01/30 02:36:09;;;;;;;1.75;0.90;;;;;;;;;;5054923;28;20035;-74
2021/01/30 02:38:37;;;;;;;2.85;0.80;;;;;;;;;;5063008;28;20021;-72
2021/01/30 02:41:09;;;;;;;2.03;0.70;;;;;;;;;;5062629;28;20571;-72
2021/01/30 02:43:38;;;;;;;1.08;0.55;;;;;;;;;;5054713;28;20064;-72
2021/01/30 02:46:06;;;;;;;4.13;0.82;;;;;;;;;;5066861;28;20017;-72
2021/01/30 02:48:41;;;;;;;2.45;0.90;;;;;;;;;;5051995;28;20037;-71
2021/01/30 02:51:09;;;;;;;1.88;0.80;;;;;;;;;;5058057;28;20068;-73
2021/01/30 02:53:37;;;;;;;1.65;0.80;;;;;;;;;;5067600;28;20099;-72
2021/01/30 02:56:04;;;;;;;3.13;0.90;;;;;;;;;;5055440;28;20016;-72
2021/01/30 02:58:35;;;;;;;3.13;0.75;;;;;;;;;;5063231;28;20040;-73
2021/01/30 03:01:01;;;;;;;1.95;0.70;;;;;;;;;;5063103;28;20041;-73
2021/01/30 03:03:27;;;;;;;1.05;0.63;;;;;;;;;;5055111;28;20035;-73
2021/01/30 03:05:55;;;;;;;1.40;0.68;;;;;;;;;;5037566;28;20036;-72
2021/01/30 03:08:30;;;;;;;2.88;0.85;;;;;;;;;;5064521;28;20024;-74
2021/01/30 03:10:56;;;;;;;1.63;0.70;;;;;;;;;;5062479;28;20127;-73
2021/01/30 03:13:27;;;;;;;2.05;0.75;;;;;;;;;;5055663;28;20096;-73
2021/01/30 03:15:59;;;;;;;3.03;0.85;;;;;;;;;;5067303;28;20044;-73
2021/01/30 03:18:29;;;;;;;1.88;0.70;;;;;;;;;;5051039;28;20124;-73
2021/01/30 03:20:55;;;;;;;2.58;0.90;;;;;;;;;;5056672;28;20119;-73
2021/01/30 03:23:21;;;;;;;2.03;0.70;;;;;;;;;;5052175;28;20036;-72
2021/01/30 03:25:48;;;;;;;2.25;0.70;;;;;;;;;;5067316;28;20017;-72
2021/01/30 03:28:15;;;;;;;1.92;0.80;;;;;;;;;;5056689;28;20021;-73
2021/01/30 03:30:41;;;;;;;2.20;0.88;;;;;;;;;;5062535;28;20016;-72
2021/01/30 03:33:08;;;;;;;2.00;0.80;;;;;;;;;;5057580;28;20029;-72
2021/01/30 03:35:34;;;;;;;3.47;1.17;;;;;;;;;;5065641;28;20027;-73
2021/01/30 03:38:00;;;;;;;1.88;0.90;;;;;;;;;;5047252;28;20052;-73
2021/01/30 03:40:27;;;;;;;3.80;0.98;;;;;;;;;;5045450;28;20541;-73
2021/01/30 03:42:53;;;;;;;2.85;1.08;;;;;;;;;;5059569;28;20116;-72
2021/01/30 03:45:21;;;;;;;3.47;1.00;;;;;;;;;;5065213;28;20078;-72
2021/01/30 03:47:47;;;;;;;1.92;0.90;;;;;;;;;;5054037;28;20044;-72
2021/01/30 03:50:14;;;;;;;2.25;0.90;;;;;;;;;;5063848;28;20040;-72
2021/01/30 03:52:40;;;;;;;1.73;0.70;;;;;;;;;;5059664;28;20104;-72
2021/01/30 03:55:06;;;;;;;3.83;0.82;;;;;;;;;;5054093;28;20087;-72
2021/01/30 03:57:32;;;;;;;3.47;1.20;;;;;;;;;;5029390;28;20060;-72
2021/01/30 03:59:58;;;;;;;4.47;1.02;;;;;;;;;;5065467;28;20595;-73
2021/01/30 04:02:24;;;;;;;2.38;1.02;;;;;;;;;;5058980;28;20055;-73
2021/01/30 04:04:50;;;;;;;2.35;1.05;;;;;;;;;;5063394;28;20120;-72
2021/01/30 04:07:16;;;;;;;3.17;1.00;;;;;;;;;;5068840;28;20021;-72
2021/01/30 04:09:42;;;;;;;3.17;0.95;;;;;;;;;;5057604;28;20025;-72
2021/01/30 04:12:08;;;;;;;3.53;0.90;;;;;;;;;;5065134;28;20013;-72
2021/01/30 04:14:35;;;;;;;2.42;0.90;;;;;;;;;;5049933;28;20088;-72
2021/01/30 04:17:02;;;;;;;2.55;0.95;;;;;;;;;;5061563;28;20025;-72
2021/01/30 04:19:28;;;;;;;2.08;0.70;;;;;;;;;;5069137;28;20058;-72
2021/01/30 04:21:54;;;;;;;3.00;0.90;;;;;;;;;;5056718;28;20040;-72
2021/01/30 04:24:20;;;;;;;2.47;0.88;;;;;;;;;;5063264;28;20016;-74
2021/01/30 04:26:47;;;;;;;2.42;0.88;;;;;;;;;;5063360;28;20406;-73
2021/01/30 04:29:13;;;;;;;2.53;0.82;;;;;;;;;;5057192;28;20025;-73
2021/01/30 04:31:39;;;;;;;2.58;1.00;;;;;;;;;;5066914;28;20849;-73
2021/01/30 04:34:05;;;;;;;2.45;0.85;;;;;;;;;;5057617;28;20020;-74
2021/01/30 04:36:31;;;;;;;3.88;0.90;;;;;;;;;;5065187;28;20024;-72
2021/01/30 04:38:58;;;;;;;2.80;0.93;;;;;;;;;;5064801;28;20028;-72
2021/01/30 04:41:42;;;;;;;2.65;0.95;;;;;;;;;;5057718;28;20044;-72
2021/01/30 04:44:11;;;;;;;2.10;0.80;;;;;;;;;;5041586;28;20013;-77
2021/01/30 04:47:00;;;;;;;2.28;0.80;;;;;;;;;;5055059;28;20017;-72
2021/01/30 04:49:35;;;;;;;2.53;0.80;;;;;;;;;;5064412;28;20084;-72
2021/01/30 04:52:07;;;;;;;2.22;0.85;;;;;;;;;;5041335;28;20016;-72
2021/01/30 04:54:43;;;;;;;3.17;0.75;;;;;;;;;;5065184;28;20071;-73
2021/01/30 04:57:29;;;;;;;1.98;0.93;;;;;;;;;;5065466;28;20117;-73
2021/01/30 05:00:11;;;;;;;2.47;0.90;;;;;;;;;;5055423;28;20118;-72
2021/01/30 05:02:49;;;;;;;1.88;0.90;;;;;;;;;;5064294;28;20100;-73
2021/01/30 05:05:16;;;;;;;2.75;0.80;;;;;;;;;;5061237;28;20056;-73
2021/01/30 05:07:48;;;;;;;3.67;1.08;;;;;;;;;;5056434;28;20032;-73
2021/01/30 05:10:17;;;;;;;2.72;0.90;;;;;;;;;;5066379;28;20025;-72
2021/01/30 05:13:01;;;;;;;3.47;0.98;;;;;;;;;;5062714;28;20025;-73
2021/01/30 05:15:33;;;;;;;2.38;0.90;;;;;;;;;;5057358;28;20025;-72
2021/01/30 05:18:02;;;;;;;3.17;1.10;;;;;;;;;;5069905;28;20025;-73
2021/01/30 05:20:33;;;;;;;2.97;1.02;;;;;;;;;;5044625;28;20037;-73
2021/01/30 05:23:00;;;;;;;3.30;1.00;;;;;;;;;;5049899;28;20029;-72
2021/01/30 05:25:27;;;;;;;2.42;0.95;;;;;;;;;;5068308;28;20039;-74
2021/01/30 05:28:12;;;;;;;3.40;1.00;;;;;;;;;;5053344;28;20098;-73
2021/01/30 05:30:56;;;;;;;1.95;0.80;;;;;;;;;;5057639;28;20408;-71
2021/01/30 05:33:22;;;;;;;2.25;0.85;;;;;;;;;;5057554;28;20430;-73
2021/01/30 05:35:54;;;;;;;15.10;0.90;;;;;;;;;;5069019;28;20070;-73
2021/01/30 05:38:39;;;;;;;2.67;1.00;;;;;;;;;;5050724;28;20046;-72
2021/01/30 05:41:11;;;;;;;3.42;0.85;;;;;;;;;;5059864;28;20510;-73
2021/01/30 05:43:48;;;;;;;2.63;0.90;;;;;;;;;;5068873;28;20017;-72
2021/01/30 05:46:26;;;;;;;3.35;0.73;;;;;;;;;;5058153;28;20035;-72
2021/01/30 05:48:53;;;;;;;1.60;0.75;;;;;;;;;;5061325;28;20037;-73
2021/01/30 05:51:22;;;;;;;4.82;1.00;;;;;;;;;;5066987;28;20067;-73
2021/01/30 05:53:49;;;;;;;1.23;0.60;;;;;;;;;;5052069;28;20426;-73
2021/01/30 05:56:15;;;;;;;1.90;0.65;;;;;;;;;;5042642;28;20388;-73
2021/01/30 05:58:44;;;;;;;2.55;0.70;;;;;;;;;;5062855;28;20036;-73
2021/01/30 06:01:16;;;;;;;3.50;1.00;;;;;;;;;;5064342;28;20037;-74
2021/01/30 06:04:11;;;;;;;3.38;0.75;;;;;;;;;;5053974;28;20079;-72
2021/01/30 06:06:40;;;;;;;2.15;0.80;;;;;;;;;;5054477;28;20036;-73
2021/01/30 06:09:08;;;;;;;3.92;1.00;;;;;;;;;;5064859;28;20017;-72
2021/01/30 06:11:42;;;;;;;2.78;0.90;;;;;;;;;;5046699;28;20071;-73
2021/01/30 06:14:09;;;;;;;2.20;0.65;;;;;;;;;;5067139;28;20024;-73
2021/01/30 06:16:36;;;;;;;1.90;0.80;;;;;;;;;;5060364;28;20107;-72
2021/01/30 06:19:28;;;;;;;3.28;0.70;;;;;;;;;;5059533;28;20028;-73
2021/01/30 06:22:12;;;;;;;1.77;0.75;;;;;;;;;;5052311;28;20048;-72
2021/01/30 06:24:45;;;;;;;1.60;0.70;;;;;;;;;;5060978;28;20023;-73
2021/01/30 06:27:20;;;;;;;1.67;0.65;;;;;;;;;;5057032;28;20036;-73
2021/01/30 06:29:50;;;;;;;3.15;0.88;;;;;;;;;;5037242;28;20092;-72
2021/01/30 06:32:19;;;;;;;3.80;0.80;;;;;;;;;;5064467;28;20024;-73
2021/01/30 06:34:47;;;;;;;1.40;0.70;;;;;;;;;;5061443;28;20020;-72
2021/01/30 06:37:16;;;;;;;2.03;0.60;;;;;;;;;;5057829;28;20064;-72
2021/01/30 06:39:44;;;;;;;2.40;0.77;;;;;;;;;;5067682;28;20028;-73
2021/01/30 06:42:16;;;;;;;2.67;0.77;;;;;;;;;;5056631;28;20086;-73
2021/01/30 06:44:42;;;;;;;1.93;0.80;;;;;;;;;;5061527;28;20059;-72
2021/01/30 06:47:19;;;;;;;1.95;0.90;;;;;;;;;;5057659;28;20896;-72
2021/01/30 06:50:05;;;;;;;4.60;0.80;;;;;;;;;;5054636;28;20032;-73
2021/01/30 06:52:32;;;;;;;2.20;0.88;;;;;;;;;;5063167;28;20048;-74
2021/01/30 06:55:04;;;;;;;2.25;0.80;;;;;;;;;;5062977;28;20020;-72
2021/01/30 06:57:35;;;;;;;2.17;0.70;;;;;;;;;;5054677;28;20104;-72
2021/01/30 07:00:04;;;;;;;2.22;0.90;;;;;;;;;;5038708;28;20029;-74
2021/01/30 07:02:30;;;;;;;2.65;0.80;;;;;;;;;;5056586;28;20021;-73
2021/01/30 07:05:18;;;;;;;5.35;0.80;;;;;;;;;;5052828;28;20078;-73
2021/01/30 07:08:02;;;;;;;3.13;0.85;;;;;;;;;;5054272;28;20052;-73
2021/01/30 07:10:28;;;;;;;3.80;0.77;;;;;;;;;;5063607;28;20103;-73
2021/01/30 07:13:13;;;;;;;1.63;0.60;;;;;;;;;;5062242;28;20067;-72
2021/01/30 07:15:44;;;;;;;1.95;0.80;;;;;;;;;;5054136;28;20031;-74
2021/01/30 07:18:16;;;;;;;8.52;0.68;;;;;;;;;;5065720;28;20017;-72
2021/01/30 07:20:57;;;;;;;2.42;0.77;;;;;;;;;;5053005;28;20150;-73
2021/01/30 07:23:23;;;;;;;2.47;0.70;;;;;;;;;;5055336;28;20126;-72
2021/01/30 07:25:49;;;;;;;2.13;0.80;;;;;;;;;;5065790;28;20443;-74
2021/01/30 07:28:34;;;;;;;5.85;0.85;;;;;;;;;;5056695;28;20099;-74
2021/01/30 07:31:07;;;;;;;2.03;0.82;;;;;;;;;;5066704;28;20028;-73
2021/01/30 07:33:33;;;;;;;;;;;;;;;;;;5054572;28;20033;-72
2021/01/30 07:36:07;;;;;;;1.90;0.90;;;;;;;;;;5064281;28;19908;-72
2021/01/30 07:38:39;;;;;;;3.08;0.70;;;;;;;;;;5049454;28;20480;-72
2021/01/30 07:41:15;;;;;;;1.58;0.60;;;;;;;;;;5060838;28;20048;-72
2021/01/30 07:43:50;;;;;;;2.05;0.85;;;;;;;;;;5071175;28;20885;-73
2021/01/30 07:46:16;;;;;;;1.77;0.80;;;;;;;;;;5060859;28;20489;-73
2021/01/30 07:48:52;;;;;;;4.45;0.82;;;;;;;;;;5065153;28;20049;-74
2021/01/30 07:51:23;;;;;;;1.70;0.77;;;;;;;;;;5069248;28;20059;-72
2021/01/30 07:53:50;;;;;;;3.00;0.90;;;;;;;;;;5050690;28;20022;-73
2021/01/30 07:56:19;;;;;;;2.45;0.88;;;;;;;;;;5063177;28;20037;-72
2021/01/30 07:58:45;;;;;;;3.90;1.08;;;;;;;;;;5054120;28;20024;-73
2021/01/30 08:01:24;;;;;;;2.85;1.00;;;;;;;;;;5059859;28;20116;-73
2021/01/30 08:04:00;;;;;;;2.55;1.00;;;;;;;;;;5069393;28;20108;-72
2021/01/30 08:06:47;;;;;;;3.13;1.15;;;;;;;;;;5061968;28;20013;-74
2021/01/30 08:09:21;;;;;;;2.15;0.82;;;;;;;;;;5053359;28;20037;-73
2021/01/30 08:11:51;;;;;;;4.80;1.10;;;;;;;;;;5039612;28;20415;-73
2021/01/30 08:14:23;;;;;;;3.00;1.00;;;;;;;;;;5068207;28;20032;-73
2021/01/30 08:17:12;;;;;;;2.70;0.98;;;;;;;;;;5064661;28;20121;-72
2021/01/30 08:19:41;;;;;;;3.03;1.00;;;;;;;;;;5037775;28;20843;-73
2021/01/30 08:22:18;;;;;;;2.38;0.90;;;;;;;;;;5069289;28;20035;-71
2021/01/30 08:24:50;;;;;;;5.90;1.20;;;;;;;;;;5063468;28;20065;-72
2021/01/30 08:27:25;;;;;;;5.85;0.98;;;;;;;;;;5054337;28;20022;-78
2021/01/30 08:29:54;;;;;;;8.70;1.20;;;;;;;;;;5069732;28;20021;-79
2021/01/30 08:32:23;;;;;;;4.65;1.02;;;;;;;;;;5060466;28;20074;-77
2021/01/30 08:34:50;;;;;;;5.40;1.33;;;;;;;;;;5067747;28;20021;-77
2021/01/30 08:37:16;;;;;;;3.88;1.10;;;;;;;;;;5068121;28;20020;-78
2021/01/30 08:40:01;;;;;;;4.10;1.08;;;;;;;;;;5055687;28;20438;-78
2021/01/30 08:42:29;;;;;;;3.45;1.20;;;;;;;;;;5065173;28;20032;-78
2021/01/30 08:44:59;;;;;;;6.50;1.60;;;;;;;;;;5042598;28;20045;-79
2021/01/30 08:47:30;;;;;;;5.63;1.40;;;;;;;;;;5062605;28;20020;-77
2021/01/30 08:49:59;;;;;;;4.22;1.27;;;;;;;;;;5056802;28;20103;-77
2021/01/30 08:52:34;;;;;;;10.70;1.73;;;;;;;;;;5065290;28;20484;-77
2021/01/30 08:55:20;;;;;;;6.22;1.45;;;;;;;;;;5065646;28;20029;-78
2021/01/30 08:57:47;;;;;;;115.70;28.23;;;;;;;;;;5056664;28;20023;-78
2021/01/30 09:00:33;;;;;;;43.75;10.90;;;;;;;;;;5066620;28;20025;-78
2021/01/30 09:03:00;;;;;;;34.10;8.93;;;;;;;;;;5024735;28;20041;-78
2021/01/30 09:05:26;;;;;;;30.10;8.27;;;;;;;;;;5068671;28;20024;-78
2021/01/30 09:07:53;;;;;;;31.90;8.27;;;;;;;;;;5055419;28;20419;-78
2021/01/30 09:10:29;;;;;;;35.30;7.72;;;;;;;;;;5065679;28;20024;-78
2021/01/30 09:13:01;;;;;;;29.20;7.47;;;;;;;;;;5064473;28;20028;-79
2021/01/30 09:15:42;;;;;;;28.70;5.95;;;;;;;;;;5055924;28;20384;-80
2021/01/30 09:18:08;;;;;;;34.22;6.38;;;;;;;;;;5034365;28;20028;-78
2021/01/30 09:20:38;;;;;;;26.98;6.57;;;;;;;;;;5048547;28;20025;-78
2021/01/30 09:23:10;;;;;;;24.55;6.03;;;;;;;;;;5059072;28;20054;-77
2021/01/30 09:25:36;;;;;;;19.75;5.78;;;;;;;;;;5069072;28;20008;-75
2021/01/30 09:28:06;;;;;;;23.80;5.68;;;;;;;;;;5046267;28;20114;-77
2021/01/30 09:30:40;;;;;;;24.73;5.55;;;;;;;;;;5064474;28;20840;-77
2021/01/30 09:33:11;;;;;;;18.65;4.90;;;;;;;;;;5065610;28;20047;-77
2021/01/30 09:35:39;;;;;;;17.10;4.75;;;;;;;;;;5047453;28;20109;-76
2021/01/30 09:38:19;;;;;;;23.05;5.00;;;;;;;;;;5065775;28;20028;-76
2021/01/30 09:40:45;;;;;;;29.27;5.80;;;;;;;;;;5060914;28;20047;-75
2021/01/30 09:43:11;;;;;;;22.52;5.25;;;;;;;;;;5066403;28;20028;-81
2021/01/30 09:45:38;;;;;;;21.38;4.97;;;;;;;;;;5049674;28;20021;-81
2021/01/30 09:48:07;;;;;;;26.88;5.63;;;;;;;;;;5059082;28;20115;-83
2021/01/30 09:50:35;;;;;;;28.77;5.32;;;;;;;;;;5063960;28;20033;-81
2021/01/30 09:53:04;;;;;;;20.00;4.75;;;;;;;;;;5052728;28;20055;-81
2021/01/30 09:55:30;;;;;;;20.33;5.47;;;;;;;;;;5060399;28;20028;-78
2021/01/30 09:58:07;;;;;;;22.48;5.55;;;;;;;;;;5055104;28;20025;-80
2021/01/30 10:00:44;;;;;;;18.73;4.68;;;;;;;;;;5050046;28;20493;-77
2021/01/30 10:03:16;;;;;;;17.65;4.25;;;;;;;;;;5042291;28;24085;-75
2021/01/30 10:05:43;;;;;;;15.70;4.47;;;;;;;;;;5040710;28;20060;-72
2021/01/30 10:08:21;;;;;;;24.45;4.22;;;;;;;;;;5043333;28;20021;-71
2021/01/30 10:10:47;;;;;;;15.23;4.65;;;;;;;;;;5035887;28;20055;-74
2021/01/30 10:13:15;;;;;;;14.43;3.95;;;;;;;;;;5043276;28;20312;-75
2021/01/30 10:15:43;;;;;;;12.93;4.22;;;;;;;;;;5047215;28;20053;-70
2021/01/30 10:18:15;;;;;;;13.90;4.50;;;;;;;;;;5045790;28;20029;-72
2021/01/30 10:20:45;;;;;;;13.32;3.90;;;;;;;;;;5053573;28;20029;-72
2021/01/30 10:23:11;;;;;;;12.48;3.83;;;;;;;;;;5048175;28;20123;-71
2021/01/30 10:25:38;;;;;;;14.32;4.10;;;;;;;;;;5049128;28;20107;-70
2021/01/30 10:28:06;;;;;;;9.43;3.55;;;;;;;;;;5044953;28;20522;-76
2021/01/30 10:30:33;;;;;;;11.27;3.90;;;;;;;;;;5045382;28;20017;-75
2021/01/30 10:33:00;;;;;;;11.73;3.60;;;;;;;;;;5057678;28;20627;-72
2021/01/30 10:35:45;;;;;;;11.05;3.67;;;;;;;;;;5045543;28;20020;-72
2021/01/30 10:38:13;;;;;;;19.17;4.57;;;;;;;;;;5043676;28;20032;-72
2021/01/30 10:40:40;;;;;;;12.10;4.68;;;;;;;;;;5050891;28;20026;-72
2021/01/30 10:43:08;;;;;;;9.07;3.33;;;;;;;;;;5046193;28;20427;-72
2021/01/30 10:45:35;;;;;;;10.63;3.67;;;;;;;;;;5044281;28;20026;-74
2021/01/30 10:48:03;;;;;;;9.88;4.30;;;;;;;;;;5045938;28;20515;-73
2021/01/30 10:50:32;;;;;;;12.23;3.80;;;;;;;;;;5065396;28;20487;-76
2021/01/30 10:53:20;;;;;;;15.38;4.30;;;;;;;;;;5047822;28;20021;-75
2021/01/30 10:55:47;;;;;;;8.30;3.30;;;;;;;;;;5042434;28;20029;-75
2021/01/30 10:58:13;;;;;;;10.07;4.10;;;;;;;;;;5048751;28;20019;-74
2021/01/30 11:00:39;;;;;;;8.73;3.65;;;;;;;;;;5046677;28;20036;-76
2021/01/30 11:03:25;;;;;;;10.77;4.03;;;;;;;;;;5051936;28;20442;-76
2021/01/30 11:05:51;;;;;;;11.05;3.65;;;;;;;;;;5041482;28;20022;-75
2021/01/30 11:08:28;;;;;;;13.50;3.88;;;;;;;;;;5060874;28;20017;-74
2021/01/30 11:11:08;;;;;;;12.70;3.33;;;;;;;;;;5040102;28;20068;-75
2021/01/30 11:13:39;;;;;;;10.88;3.38;;;;;;;;;;5053052;28;20492;-74
2021/01/30 11:16:05;;;;;;;6.90;2.80;;;;;;;;;;5045143;28;20059;-73
2021/01/30 11:18:33;;;;;;;9.40;3.00;;;;;;;;;;5037307;28;20025;-74
2021/01/30 11:21:00;;;;;;;8.93;3.17;;;;;;;;;;5052998;28;20034;-73
2021/01/30 11:23:35;;;;;;;9.63;2.72;;;;;;;;;;5052990;28;20028;-74
2021/01/30 11:26:10;;;;;;;9.88;2.75;;;;;;;;;;5049389;28;20582;-73
2021/01/30 11:28:36;;;;;;;8.80;2.28;;;;;;;;;;5032326;28;20025;-74
2021/01/30 11:31:03;;;;;;;19.75;3.10;;;;;;;;;;5034855;28;20049;-74
2021/01/30 11:33:29;;;;;;;6.43;2.58;;;;;;;;;;5049943;28;20028;-74
2021/01/30 11:35:56;;;;;;;10.75;2.17;;;;;;;;;;5050034;28;20044;-73
2021/01/30 11:38:26;;;;;;;12.52;2.42;;;;;;;;;;5049839;28;20029;-73
2021/01/30 11:40:54;;;;;;;8.15;2.45;;;;;;;;;;5050991;28;20029;-73
2021/01/30 11:43:20;;;;;;;7.18;2.60;;;;;;;;;;5045918;28;20017;-74
2021/01/30 11:45:47;;;;;;;5.57;2.05;;;;;;;;;;5030938;28;20017;-73
2021/01/30 11:48:13;;;;;;;9.35;2.10;;;;;;;;;;5029772;28;20128;-74
2021/01/30 11:50:40;;;;;;;7.80;2.20;;;;;;;;;;5029559;28;20380;-74
2021/01/30 11:53:07;;;;;;;6.20;1.90;;;;;;;;;;5045760;28;20120;-74
2021/01/30 11:55:33;;;;;;;9.48;2.22;;;;;;;;;;5029797;28;20108;-73
2021/01/30 11:57:59;;;;;;;7.85;1.83;;;;;;;;;;5047453;28;20044;-74
2021/01/30 12:00:25;;;;;;;10.15;1.67;;;;;;;;;;5053439;28;20025;-74
2021/01/30 12:02:52;;;;;;;10.35;1.60;;;;;;;;;;5060499;28;20074;-74
2021/01/30 12:05:19;;;;;;;5.47;1.48;;;;;;;;;;5062260;28;20020;-74
2021/01/30 12:07:45;;;;;;;7.07;1.52;;;;;;;;;;5049745;28;20029;-74
2021/01/30 12:10:11;;;;;;;6.85;1.40;;;;;;;;;;5064003;28;20009;-74
2021/01/30 12:12:37;;;;;;;6.80;1.30;;;;;;;;;;5056223;28;20017;-74
2021/01/30 12:15:04;;;;;;;7.90;1.42;;;;;;;;;;5057633;28;20032;-74
2021/01/30 12:17:34;;;;;;;7.47;1.38;;;;;;;;;;5057711;28;20028;-74
2021/01/30 12:20:00;;;;;;;5.45;1.10;;;;;;;;;;5053804;28;20669;-75
2021/01/30 12:22:26;;;;;;;5.53;1.33;;;;;;;;;;5070302;28;20035;-74
2021/01/30 12:24:52;;;;;;;5.97;1.38;;;;;;;;;;5069173;28;20024;-74
2021/01/30 12:27:18;;;;;;;5.28;1.25;;;;;;;;;;5059105;28;20034;-74
2021/01/30 12:29:44;;;;;;;4.97;1.38;;;;;;;;;;5055957;28;20365;-75
2021/01/30 12:32:11;;;;;;;5.95;1.48;;;;;;;;;;5070327;28;20020;-75
2021/01/30 12:34:37;;;;;;;4.57;1.30;;;;;;;;;;5061488;28;20020;-74
2021/01/30 12:37:04;;;;;;;7.15;1.52;;;;;;;;;;5061867;28;20024;-75
2021/01/30 12:39:30;;;;;;;3.08;1.30;;;;;;;;;;5067254;28;20079;-74
2021/01/30 12:41:56;;;;;;;4.38;1.40;;;;;;;;;;5056297;28;20484;-75
2021/01/30 12:44:24;;;;;;;4.53;1.88;;;;;;;;;;5068554;28;20460;-74
2021/01/30 12:46:51;;;;;;;5.40;1.52;;;;;;;;;;5061849;28;20021;-74
2021/01/30 12:49:17;;;;;;;4.72;1.42;;;;;;;;;;5060821;28;20114;-75
2021/01/30 12:51:43;;;;;;;4.55;2.03;;;;;;;;;;5058674;28;20052;-75
2021/01/30 12:54:09;;;;;;;4.40;2.08;;;;;;;;;;5068571;28;20526;-75
2021/01/30 12:56:36;;;;;;;7.28;2.08;;;;;;;;;;5059521;28;20032;-75
2021/01/30 12:59:02;;;;;;;5.07;2.40;;;;;;;;;;5060073;28;20415;-75
2021/01/30 13:01:28;;;;;;;4.50;1.90;;;;;;;;;;5062283;28;20025;-74
2021/01/30 13:03:54;;;;;;;4.07;1.92;;;;;;;;;;5056810;28;20029;-74
2021/01/30 13:06:20;;;;;;;5.80;2.10;;;;;;;;;;5068440;28;20092;-75
2021/01/30 13:08:47;;;;;;;3.97;1.98;;;;;;;;;;5060928;28;20028;-75
2021/01/30 13:11:13;;;;;;;3.80;1.90;;;;;;;;;;5061094;28;20154;-75
2021/01/30 13:13:40;;;;;;;4.25;1.65;;;;;;;;;;5069080;28;20025;-75
2021/01/30 13:16:06;;;;;;;3.78;1.77;;;;;;;;;;5047277;28;20447;-75
2021/01/30 13:18:33;;;;;;;3.10;1.40;;;;;;;;;;5058981;28;20065;-75
2021/01/30 13:21:00;;;;;;;3.90;1.45;;;;;;;;;;5062913;28;20064;-75
2021/01/30 13:23:26;;;;;;;4.45;1.33;;;;;;;;;;5067168;28;20416;-75
2021/01/30 13:25:52;;;;;;;3.85;1.70;;;;;;;;;;5055122;28;20028;-75
2021/01/30 13:28:18;;;;;;;3.17;1.52;;;;;;;;;;5067990;28;20020;-74
2021/01/30 13:30:45;;;;;;;4.05;1.60;;;;;;;;;;5059844;28;20012;-75
2021/01/30 13:33:12;;;;;;;2.95;1.13;;;;;;;;;;5056804;28;20022;-75
2021/01/30 13:35:38;;;;;;;3.03;1.20;;;;;;;;;;5062927;28;20016;-75
2021/01/30 13:38:04;;;;;;;2.70;1.27;;;;;;;;;;5056071;28;20036;-75
2021/01/30 13:40:30;;;;;;;3.20;1.40;;;;;;;;;;5066229;28;20480;-75
2021/01/30 13:42:56;;;;;;;2.92;1.30;;;;;;;;;;5061573;28;20036;-74
2021/01/30 13:45:23;;;;;;;3.50;1.45;;;;;;;;;;5057806;28;20483;-75
2021/01/30 13:47:49;;;;;;;4.68;1.20;;;;;;;;;;5068891;28;20045;-75
2021/01/30 13:50:16;;;;;;;3.05;1.30;;;;;;;;;;5056263;28;20466;-75
2021/01/30 13:52:42;;;;;;;3.58;1.40;;;;;;;;;;5062306;28;20013;-74
2021/01/30 13:55:08;;;;;;;3.13;1.25;;;;;;;;;;5060861;28;20028;-74
2021/01/30 13:57:34;;;;;;;3.13;1.27;;;;;;;;;;5067618;28;20021;-75
2021/01/30 14:00:01;;;;;;;3.00;1.17;;;;;;;;;;5055506;28;20040;-74
2021/01/30 14:02:27;;;;;;;2.47;1.17;;;;;;;;;;5066209;28;20037;-74
2021/01/30 14:04:53;;;;;;;2.25;1.00;;;;;;;;;;5060570;28;20066;-74
2021/01/30 14:07:19;;;;;;;3.30;1.15;;;;;;;;;;5052504;28;20025;-74
2021/01/30 14:09:45;;;;;;;1.75;0.82;;;;;;;;;;5065775;28;20051;-75
2021/01/30 14:12:12;;;;;;;2.20;0.95;;;;;;;;;;5055995;28;20020;-75
2021/01/30 14:14:38;;;;;;;2.50;1.10;;;;;;;;;;5064612;28;20013;-75
2021/01/30 14:17:04;;;;;;;3.85;1.02;;;;;;;;;;5058178;28;20056;-74
2021/01/30 14:19:30;;;;;;;1.90;1.00;;;;;;;;;;5057231;28;20021;-74
2021/01/30 14:21:56;;;;;;;2.25;1.00;;;;;;;;;;5068105;28;20129;-74
2021/01/30 14:24:23;;;;;;;2.22;1.08;;;;;;;;;;5051435;28;20017;-74
2021/01/30 14:26:50;;;;;;;1.90;0.82;;;;;;;;;;5061006;28;20066;-74
2021/01/30 14:29:16;;;;;;;2.15;0.98;;;;;;;;;;5059608;28;20024;-74
2021/01/30 14:31:42;;;;;;;2.83;0.93;;;;;;;;;;5067986;28;20056;-74
2021/01/30 14:34:09;;;;;;;2.05;0.90;;;;;;;;;;5053781;28;20021;-74
2021/01/30 14:36:35;;;;;;;1.60;0.80;;;;;;;;;;5063376;28;20083;-74
2021/01/30 14:39:01;;;;;;;2.63;0.98;;;;;;;;;;5062394;28;20027;-74
2021/01/30 14:41:27;;;;;;;2.42;0.90;;;;;;;;;;5049182;28;20041;-74
2021/01/30 14:43:53;;;;;;;2.20;1.00;;;;;;;;;;5066161;28;20048;-74
2021/01/30 14:46:20;;;;;;;2.35;0.93;;;;;;;;;;5056070;28;20246;-74
2021/01/30 14:48:46;;;;;;;2.50;1.00;;;;;;;;;;5062990;28;20045;-74
2021/01/30 14:51:12;;;;;;;1.75;0.80;;;;;;;;;;5057886;28;20021;-74
2021/01/30 14:53:38;;;;;;;3.15;1.00;;;;;;;;;;5066700;28;20056;-74